sensor_id;sensor_type;location;lat;lon;timestamp;P1;durP1;ratioP1;P2;durP2;ratioP2
70840;SDS011;58465;51.534;9.934;2022-12-20T00:02:13;22.63;;;10.40;;
70840;SDS011;58465;51.534;9.934;2022-12-20T00:04:38;22.08;;;9.80;;
70840;SDS011;58465;51.534;9.934;2022-12-20T00:07:04;23.27;;;10.75;;
70840;SDS011;58465;51.534;9.934;2022-12-20T00:09:29;18.48;;;9.52;;
70840;SDS011;58465;51.534;9.934;2022-12-20T00:11:54;18.60;;;9.15;;
70840;SDS011;58465;51.534;9.934;2022-12-20T00:14:20;22.77;;;9.73;;
70840;SDS011;58465;51.534;9.934;2022-12-20T00:16:45;18.33;;;8.80;;
70840;SDS011;58465;51.534;9.934;2022-12-20T00:19:10;20.88;;;9.60;;
70840;SDS011;58465;51.534;9.934;2022-12-20T00:21:36;18.77;;;9.63;;
70840;SDS011;58465;51.534;9.934;2022-12-20T00:24:02;18.95;;;8.98;;
70840;SDS011;58465;51.534;9.934;2022-12-20T00:26:30;17.17;;;9.20;;
70840;SDS011;58465;51.534;9.934;2022-12-20T00:28:57;19.33;;;9.20;;
70840;SDS011;58465;51.534;9.934;2022-12-20T00:31:24;19.13;;;9.18;;
70840;SDS011;58465;51.534;9.934;2022-12-20T00:33:51;18.83;;;9.25;;
70840;SDS011;58465;51.534;9.934;2022-12-20T00:36:18;21.98;;;9.95;;
70840;SDS011;58465;51.534;9.934;2022-12-20T00:38:47;19.38;;;8.90;;
70840;SDS011;58465;51.534;9.934;2022-12-20T00:41:14;19.60;;;9.57;;
70840;SDS011;58465;51.534;9.934;2022-12-20T00:43:42;22.00;;;9.20;;
70840;SDS011;58465;51.534;9.934;2022-12-20T00:46:08;20.77;;;9.90;;
70840;SDS011;58465;51.534;9.934;2022-12-20T00:48:35;20.20;;;9.20;;
70840;SDS011;58465;51.534;9.934;2022-12-20T00:51:02;20.40;;;9.65;;
70840;SDS011;58465;51.534;9.934;2022-12-20T00:53:30;18.63;;;9.57;;
70840;SDS011;58465;51.534;9.934;2022-12-20T00:55:56;20.70;;;9.27;;
70840;SDS011;58465;51.534;9.934;2022-12-20T00:58:21;16.30;;;8.10;;
70840;SDS011;58465;51.534;9.934;2022-12-20T01:00:47;20.08;;;9.60;;
70840;SDS011;58465;51.534;9.934;2022-12-20T01:03:12;21.73;;;9.57;;
70840;SDS011;58465;51.534;9.934;2022-12-20T01:05:38;18.00;;;8.80;;
70840;SDS011;58465;51.534;9.934;2022-12-20T01:08:03;17.17;;;9.13;;
70840;SDS011;58465;51.534;9.934;2022-12-20T01:10:29;15.05;;;7.55;;
70840;SDS011;58465;51.534;9.934;2022-12-20T01:12:54;16.92;;;8.27;;
70840;SDS011;58465;51.534;9.934;2022-12-20T01:15:19;17.10;;;8.73;;
70840;SDS011;58465;51.534;9.934;2022-12-20T01:17:45;18.83;;;8.55;;
70840;SDS011;58465;51.534;9.934;2022-12-20T01:20:11;18.75;;;8.38;;
70840;SDS011;58465;51.534;9.934;2022-12-20T01:22:36;21.67;;;8.73;;
70840;SDS011;58465;51.534;9.934;2022-12-20T01:25:02;16.73;;;8.27;;
70840;SDS011;58465;51.534;9.934;2022-12-20T01:27:27;15.52;;;8.00;;
70840;SDS011;58465;51.534;9.934;2022-12-20T01:29:53;15.13;;;8.10;;
70840;SDS011;58465;51.534;9.934;2022-12-20T01:32:18;16.55;;;8.30;;
70840;SDS011;58465;51.534;9.934;2022-12-20T01:34:44;16.92;;;9.07;;
70840;SDS011;58465;51.534;9.934;2022-12-20T01:37:09;15.40;;;8.05;;
70840;SDS011;58465;51.534;9.934;2022-12-20T01:39:34;17.88;;;9.27;;
70840;SDS011;58465;51.534;9.934;2022-12-20T01:42:00;17.08;;;8.25;;
70840;SDS011;58465;51.534;9.934;2022-12-20T01:46:51;19.03;;;8.20;;
70840;SDS011;58465;51.534;9.934;2022-12-20T01:49:21;22.75;;;8.80;;
70840;SDS011;58465;51.534;9.934;2022-12-20T01:51:54;16.05;;;7.43;;
70840;SDS011;58465;51.534;9.934;2022-12-20T01:54:35;18.38;;;8.77;;
70840;SDS011;58465;51.534;9.934;2022-12-20T01:57:09;17.67;;;8.38;;
70840;SDS011;58465;51.534;9.934;2022-12-20T01:59:43;16.33;;;8.80;;
70840;SDS011;58465;51.534;9.934;2022-12-20T02:02:12;17.98;;;9.00;;
70840;SDS011;58465;51.534;9.934;2022-12-20T02:04:38;16.05;;;8.30;;
70840;SDS011;58465;51.534;9.934;2022-12-20T02:07:04;17.23;;;8.90;;
70840;SDS011;58465;51.534;9.934;2022-12-20T02:09:32;22.48;;;9.95;;
70840;SDS011;58465;51.534;9.934;2022-12-20T02:12:07;14.70;;;7.28;;
70840;SDS011;58465;51.534;9.934;2022-12-20T02:28:50;15.68;;;8.73;;
70840;SDS011;58465;51.534;9.934;2022-12-20T02:31:20;18.80;;;8.88;;
70840;SDS011;58465;51.534;9.934;2022-12-20T02:33:51;19.17;;;9.68;;
70840;SDS011;58465;51.534;9.934;2022-12-20T02:36:19;20.45;;;10.18;;
70840;SDS011;58465;51.534;9.934;2022-12-20T02:38:44;21.67;;;9.65;;
70840;SDS011;58465;51.534;9.934;2022-12-20T02:43:47;19.20;;;9.30;;
70840;SDS011;58465;51.534;9.934;2022-12-20T02:46:34;16.02;;;7.90;;
70840;SDS011;58465;51.534;9.934;2022-12-20T02:49:01;20.27;;;10.27;;
70840;SDS011;58465;51.534;9.934;2022-12-20T02:51:35;18.35;;;8.43;;
70840;SDS011;58465;51.534;9.934;2022-12-20T02:54:02;20.38;;;9.65;;
70840;SDS011;58465;51.534;9.934;2022-12-20T02:56:32;16.35;;;8.27;;
70840;SDS011;58465;51.534;9.934;2022-12-20T03:01:49;20.48;;;10.35;;
70840;SDS011;58465;51.534;9.934;2022-12-20T03:04:17;18.15;;;8.98;;
70840;SDS011;58465;51.534;9.934;2022-12-20T03:07:06;20.10;;;9.98;;
70840;SDS011;58465;51.534;9.934;2022-12-20T03:09:35;15.10;;;8.43;;
70840;SDS011;58465;51.534;9.934;2022-12-20T03:12:03;20.85;;;9.35;;
70840;SDS011;58465;51.534;9.934;2022-12-20T03:14:29;19.92;;;9.38;;
70840;SDS011;58465;51.534;9.934;2022-12-20T03:16:55;20.63;;;9.77;;
70840;SDS011;58465;51.534;9.934;2022-12-20T03:19:20;24.35;;;10.15;;
70840;SDS011;58465;51.534;9.934;2022-12-20T03:21:46;20.50;;;9.77;;
70840;SDS011;58465;51.534;9.934;2022-12-20T03:24:11;19.38;;;8.85;;
70840;SDS011;58465;51.534;9.934;2022-12-20T03:26:37;20.85;;;9.85;;
70840;SDS011;58465;51.534;9.934;2022-12-20T03:29:03;21.75;;;9.63;;
70840;SDS011;58465;51.534;9.934;2022-12-20T03:31:28;19.10;;;9.75;;
70840;SDS011;58465;51.534;9.934;2022-12-20T03:33:54;21.83;;;9.23;;
70840;SDS011;58465;51.534;9.934;2022-12-20T03:36:20;19.15;;;9.52;;
70840;SDS011;58465;51.534;9.934;2022-12-20T03:38:47;20.02;;;9.70;;
70840;SDS011;58465;51.534;9.934;2022-12-20T03:41:13;18.10;;;9.98;;
70840;SDS011;58465;51.534;9.934;2022-12-20T03:43:39;21.48;;;10.55;;
70840;SDS011;58465;51.534;9.934;2022-12-20T03:46:04;20.08;;;9.70;;
70840;SDS011;58465;51.534;9.934;2022-12-20T03:48:29;18.08;;;8.32;;
70840;SDS011;58465;51.534;9.934;2022-12-20T03:50:55;23.42;;;10.52;;
70840;SDS011;58465;51.534;9.934;2022-12-20T03:53:20;17.45;;;9.25;;
70840;SDS011;58465;51.534;9.934;2022-12-20T03:55:45;20.40;;;10.25;;
70840;SDS011;58465;51.534;9.934;2022-12-20T03:58:10;18.33;;;10.73;;
70840;SDS011;58465;51.534;9.934;2022-12-20T04:00:36;19.83;;;9.68;;
70840;SDS011;58465;51.534;9.934;2022-12-20T04:03:01;20.35;;;9.75;;
70840;SDS011;58465;51.534;9.934;2022-12-20T04:05:27;19.42;;;9.25;;
70840;SDS011;58465;51.534;9.934;2022-12-20T04:07:52;18.98;;;8.25;;
70840;SDS011;58465;51.534;9.934;2022-12-20T04:10:17;18.23;;;8.77;;
70840;SDS011;58465;51.534;9.934;2022-12-20T04:12:42;14.73;;;7.43;;
70840;SDS011;58465;51.534;9.934;2022-12-20T04:15:08;17.77;;;7.35;;
70840;SDS011;58465;51.534;9.934;2022-12-20T04:17:33;15.98;;;7.22;;
70840;SDS011;58465;51.534;9.934;2022-12-20T04:19:58;16.35;;;8.73;;
70840;SDS011;58465;51.534;9.934;2022-12-20T04:22:42;16.92;;;7.95;;
70840;SDS011;58465;51.534;9.934;2022-12-20T04:25:08;17.42;;;9.07;;
70840;SDS011;58465;51.534;9.934;2022-12-20T04:27:33;16.58;;;9.25;;
70840;SDS011;58465;51.534;9.934;2022-12-20T04:29:59;17.63;;;8.30;;
70840;SDS011;58465;51.534;9.934;2022-12-20T04:32:24;20.60;;;10.05;;
70840;SDS011;58465;51.534;9.934;2022-12-20T04:34:49;20.70;;;9.38;;
70840;SDS011;58465;51.534;9.934;2022-12-20T04:37:15;19.23;;;9.68;;
70840;SDS011;58465;51.534;9.934;2022-12-20T04:39:40;20.35;;;8.93;;
70840;SDS011;58465;51.534;9.934;2022-12-20T04:42:05;18.52;;;9.40;;
70840;SDS011;58465;51.534;9.934;2022-12-20T04:44:30;18.00;;;9.27;;
70840;SDS011;58465;51.534;9.934;2022-12-20T04:46:56;18.20;;;9.30;;
70840;SDS011;58465;51.534;9.934;2022-12-20T04:49:21;18.90;;;9.85;;
70840;SDS011;58465;51.534;9.934;2022-12-20T04:51:46;21.23;;;9.75;;
70840;SDS011;58465;51.534;9.934;2022-12-20T04:54:11;17.35;;;8.88;;
70840;SDS011;58465;51.534;9.934;2022-12-20T04:56:37;21.88;;;9.93;;
70840;SDS011;58465;51.534;9.934;2022-12-20T04:59:03;18.27;;;9.02;;
70840;SDS011;58465;51.534;9.934;2022-12-20T05:01:28;19.13;;;9.15;;
70840;SDS011;58465;51.534;9.934;2022-12-20T05:03:53;18.88;;;9.50;;
70840;SDS011;58465;51.534;9.934;2022-12-20T05:06:19;17.85;;;8.25;;
70840;SDS011;58465;51.534;9.934;2022-12-20T05:08:45;17.58;;;8.52;;
70840;SDS011;58465;51.534;9.934;2022-12-20T05:11:11;17.75;;;9.23;;
70840;SDS011;58465;51.534;9.934;2022-12-20T05:13:36;14.32;;;7.45;;
70840;SDS011;58465;51.534;9.934;2022-12-20T05:16:02;18.27;;;8.35;;
70840;SDS011;58465;51.534;9.934;2022-12-20T05:18:27;13.02;;;8.20;;
70840;SDS011;58465;51.534;9.934;2022-12-20T05:20:54;15.88;;;8.07;;
70840;SDS011;58465;51.534;9.934;2022-12-20T05:23:39;19.15;;;8.60;;
70840;SDS011;58465;51.534;9.934;2022-12-20T05:26:23;19.08;;;8.65;;
70840;SDS011;58465;51.534;9.934;2022-12-20T05:28:49;16.83;;;7.90;;
70840;SDS011;58465;51.534;9.934;2022-12-20T05:31:15;13.00;;;6.75;;
70840;SDS011;58465;51.534;9.934;2022-12-20T05:33:41;17.40;;;8.43;;
70840;SDS011;58465;51.534;9.934;2022-12-20T05:36:06;20.23;;;7.95;;
70840;SDS011;58465;51.534;9.934;2022-12-20T05:38:31;16.15;;;8.27;;
70840;SDS011;58465;51.534;9.934;2022-12-20T05:40:57;16.30;;;8.50;;
70840;SDS011;58465;51.534;9.934;2022-12-20T05:43:22;16.83;;;8.10;;
70840;SDS011;58465;51.534;9.934;2022-12-20T05:45:48;14.73;;;7.75;;
70840;SDS011;58465;51.534;9.934;2022-12-20T05:48:15;15.13;;;7.22;;
70840;SDS011;58465;51.534;9.934;2022-12-20T05:50:42;15.52;;;7.95;;
70840;SDS011;58465;51.534;9.934;2022-12-20T05:53:12;19.67;;;7.88;;
70840;SDS011;58465;51.534;9.934;2022-12-20T05:55:43;12.82;;;7.82;;
70840;SDS011;58465;51.534;9.934;2022-12-20T05:58:11;16.02;;;7.97;;
70840;SDS011;58465;51.534;9.934;2022-12-20T06:00:37;13.13;;;7.32;;
70840;SDS011;58465;51.534;9.934;2022-12-20T06:03:04;16.52;;;8.10;;
70840;SDS011;58465;51.534;9.934;2022-12-20T06:05:30;15.82;;;7.20;;
70840;SDS011;58465;51.534;9.934;2022-12-20T06:07:56;15.35;;;8.25;;
70840;SDS011;58465;51.534;9.934;2022-12-20T06:10:21;15.95;;;7.85;;
70840;SDS011;58465;51.534;9.934;2022-12-20T06:12:46;19.77;;;8.45;;
70840;SDS011;58465;51.534;9.934;2022-12-20T06:15:11;15.77;;;7.68;;
70840;SDS011;58465;51.534;9.934;2022-12-20T06:17:39;17.77;;;8.27;;
70840;SDS011;58465;51.534;9.934;2022-12-20T06:20:04;18.42;;;7.93;;
70840;SDS011;58465;51.534;9.934;2022-12-20T06:22:30;16.25;;;7.10;;
70840;SDS011;58465;51.534;9.934;2022-12-20T06:24:55;15.98;;;8.20;;
70840;SDS011;58465;51.534;9.934;2022-12-20T06:27:21;17.55;;;7.38;;
70840;SDS011;58465;51.534;9.934;2022-12-20T06:29:47;16.90;;;8.30;;
70840;SDS011;58465;51.534;9.934;2022-12-20T06:32:16;15.43;;;8.00;;
70840;SDS011;58465;51.534;9.934;2022-12-20T06:34:41;15.45;;;8.02;;
70840;SDS011;58465;51.534;9.934;2022-12-20T06:37:06;19.42;;;9.43;;
70840;SDS011;58465;51.534;9.934;2022-12-20T06:39:32;17.42;;;8.65;;
70840;SDS011;58465;51.534;9.934;2022-12-20T06:41:57;16.73;;;8.57;;
70840;SDS011;58465;51.534;9.934;2022-12-20T06:44:23;16.27;;;8.13;;
70840;SDS011;58465;51.534;9.934;2022-12-20T06:46:48;18.20;;;8.75;;
70840;SDS011;58465;51.534;9.934;2022-12-20T06:49:13;16.15;;;8.25;;
70840;SDS011;58465;51.534;9.934;2022-12-20T06:51:38;14.85;;;8.27;;
70840;SDS011;58465;51.534;9.934;2022-12-20T06:54:04;20.77;;;10.75;;
70840;SDS011;58465;51.534;9.934;2022-12-20T06:56:29;18.08;;;8.40;;
70840;SDS011;58465;51.534;9.934;2022-12-20T06:58:54;13.63;;;7.97;;
70840;SDS011;58465;51.534;9.934;2022-12-20T07:01:19;16.75;;;8.38;;
70840;SDS011;58465;51.534;9.934;2022-12-20T07:03:45;14.30;;;8.20;;
70840;SDS011;58465;51.534;9.934;2022-12-20T07:06:10;17.08;;;8.18;;
70840;SDS011;58465;51.534;9.934;2022-12-20T07:08:35;18.13;;;8.30;;
70840;SDS011;58465;51.534;9.934;2022-12-20T07:11:07;14.90;;;8.73;;
70840;SDS011;58465;51.534;9.934;2022-12-20T07:13:33;22.33;;;9.65;;
70840;SDS011;58465;51.534;9.934;2022-12-20T07:16:01;17.63;;;8.48;;
70840;SDS011;58465;51.534;9.934;2022-12-20T07:18:28;18.35;;;8.73;;
70840;SDS011;58465;51.534;9.934;2022-12-20T07:20:57;17.70;;;8.25;;
70840;SDS011;58465;51.534;9.934;2022-12-20T07:23:23;41.38;;;11.88;;
70840;SDS011;58465;51.534;9.934;2022-12-20T07:25:55;17.25;;;8.27;;
70840;SDS011;58465;51.534;9.934;2022-12-20T07:28:22;16.83;;;8.20;;
70840;SDS011;58465;51.534;9.934;2022-12-20T07:30:48;16.73;;;9.13;;
70840;SDS011;58465;51.534;9.934;2022-12-20T07:33:13;17.13;;;8.23;;
70840;SDS011;58465;51.534;9.934;2022-12-20T07:35:39;17.02;;;9.70;;
70840;SDS011;58465;51.534;9.934;2022-12-20T07:38:04;17.88;;;8.68;;
70840;SDS011;58465;51.534;9.934;2022-12-20T07:40:30;15.73;;;7.65;;
70840;SDS011;58465;51.534;9.934;2022-12-20T07:42:55;22.27;;;9.63;;
70840;SDS011;58465;51.534;9.934;2022-12-20T07:45:20;14.93;;;7.82;;
70840;SDS011;58465;51.534;9.934;2022-12-20T07:47:46;13.75;;;8.15;;
70840;SDS011;58465;51.534;9.934;2022-12-20T07:50:11;15.88;;;8.48;;
70840;SDS011;58465;51.534;9.934;2022-12-20T07:52:36;18.30;;;9.40;;
70840;SDS011;58465;51.534;9.934;2022-12-20T07:55:04;15.80;;;8.10;;
70840;SDS011;58465;51.534;9.934;2022-12-20T07:57:34;15.63;;;7.60;;
70840;SDS011;58465;51.534;9.934;2022-12-20T08:00:03;16.17;;;8.32;;
70840;SDS011;58465;51.534;9.934;2022-12-20T08:05:24;19.58;;;8.52;;
70840;SDS011;58465;51.534;9.934;2022-12-20T08:07:51;15.85;;;7.47;;
70840;SDS011;58465;51.534;9.934;2022-12-20T08:10:18;12.48;;;6.82;;
70840;SDS011;58465;51.534;9.934;2022-12-20T08:12:44;14.30;;;7.07;;
70840;SDS011;58465;51.534;9.934;2022-12-20T08:15:11;16.25;;;7.75;;
70840;SDS011;58465;51.534;9.934;2022-12-20T08:17:37;12.68;;;7.10;;
70840;SDS011;58465;51.534;9.934;2022-12-20T08:20:03;13.43;;;5.93;;
70840;SDS011;58465;51.534;9.934;2022-12-20T08:22:29;16.40;;;7.38;;
70840;SDS011;58465;51.534;9.934;2022-12-20T08:24:55;13.40;;;7.10;;
70840;SDS011;58465;51.534;9.934;2022-12-20T08:27:20;13.70;;;7.30;;
70840;SDS011;58465;51.534;9.934;2022-12-20T08:29:46;11.80;;;6.57;;
70840;SDS011;58465;51.534;9.934;2022-12-20T08:32:11;13.27;;;7.00;;
70840;SDS011;58465;51.534;9.934;2022-12-20T08:34:38;13.98;;;7.10;;
70840;SDS011;58465;51.534;9.934;2022-12-20T08:37:03;14.00;;;7.70;;
70840;SDS011;58465;51.534;9.934;2022-12-20T08:39:29;13.93;;;6.72;;
70840;SDS011;58465;51.534;9.934;2022-12-20T08:41:54;13.45;;;7.50;;
70840;SDS011;58465;51.534;9.934;2022-12-20T08:44:19;18.55;;;7.80;;
70840;SDS011;58465;51.534;9.934;2022-12-20T08:46:45;14.38;;;7.50;;
70840;SDS011;58465;51.534;9.934;2022-12-20T08:49:11;13.73;;;6.57;;
70840;SDS011;58465;51.534;9.934;2022-12-20T08:51:36;13.80;;;7.13;;
70840;SDS011;58465;51.534;9.934;2022-12-20T08:54:01;29.77;;;11.77;;
70840;SDS011;58465;51.534;9.934;2022-12-20T08:56:27;13.90;;;7.38;;
70840;SDS011;58465;51.534;9.934;2022-12-20T08:58:52;13.32;;;7.50;;
70840;SDS011;58465;51.534;9.934;2022-12-20T09:01:18;15.15;;;7.28;;
70840;SDS011;58465;51.534;9.934;2022-12-20T09:03:45;13.45;;;6.32;;
70840;SDS011;58465;51.534;9.934;2022-12-20T09:06:20;19.27;;;9.73;;
70840;SDS011;58465;51.534;9.934;2022-12-20T09:08:47;15.38;;;6.80;;
70840;SDS011;58465;51.534;9.934;2022-12-20T09:11:14;16.23;;;6.82;;
70840;SDS011;58465;51.534;9.934;2022-12-20T09:13:42;11.73;;;6.72;;
70840;SDS011;58465;51.534;9.934;2022-12-20T09:16:09;16.85;;;7.80;;
70840;SDS011;58465;51.534;9.934;2022-12-20T09:18:35;17.83;;;7.38;;
70840;SDS011;58465;51.534;9.934;2022-12-20T09:21:02;12.23;;;6.55;;
70840;SDS011;58465;51.534;9.934;2022-12-20T09:23:29;14.75;;;6.50;;
70840;SDS011;58465;51.534;9.934;2022-12-20T09:26:00;13.13;;;6.53;;
70840;SDS011;58465;51.534;9.934;2022-12-20T09:28:28;13.07;;;6.63;;
70840;SDS011;58465;51.534;9.934;2022-12-20T09:30:56;12.98;;;6.35;;
70840;SDS011;58465;51.534;9.934;2022-12-20T09:33:22;11.57;;;6.22;;
70840;SDS011;58465;51.534;9.934;2022-12-20T09:35:47;16.08;;;7.03;;
70840;SDS011;58465;51.534;9.934;2022-12-20T09:38:13;13.02;;;6.18;;
70840;SDS011;58465;51.534;9.934;2022-12-20T09:40:38;14.35;;;6.80;;
70840;SDS011;58465;51.534;9.934;2022-12-20T09:43:10;12.73;;;6.43;;
70840;SDS011;58465;51.534;9.934;2022-12-20T09:45:36;12.57;;;6.13;;
70840;SDS011;58465;51.534;9.934;2022-12-20T09:48:02;12.55;;;6.72;;
70840;SDS011;58465;51.534;9.934;2022-12-20T09:53:31;10.95;;;6.65;;
70840;SDS011;58465;51.534;9.934;2022-12-20T09:56:11;10.20;;;5.60;;
70840;SDS011;58465;51.534;9.934;2022-12-20T10:01:21;10.75;;;5.63;;
70840;SDS011;58465;51.534;9.934;2022-12-20T10:03:51;12.32;;;6.20;;
70840;SDS011;58465;51.534;9.934;2022-12-20T10:06:21;21.58;;;10.15;;
70840;SDS011;58465;51.534;9.934;2022-12-20T10:08:57;15.32;;;7.63;;
70840;SDS011;58465;51.534;9.934;2022-12-20T10:11:32;15.45;;;6.45;;
70840;SDS011;58465;51.534;9.934;2022-12-20T10:27:43;11.40;;;5.82;;
70840;SDS011;58465;51.534;9.934;2022-12-20T10:30:11;10.20;;;5.50;;
70840;SDS011;58465;51.534;9.934;2022-12-20T10:32:43;11.75;;;5.82;;
70840;SDS011;58465;51.534;9.934;2022-12-20T10:37:35;12.57;;;5.97;;
70840;SDS011;58465;51.534;9.934;2022-12-20T10:40:01;10.77;;;4.95;;
70840;SDS011;58465;51.534;9.934;2022-12-20T10:42:36;8.63;;;5.20;;
70840;SDS011;58465;51.534;9.934;2022-12-20T10:47:58;11.40;;;5.60;;
70840;SDS011;58465;51.534;9.934;2022-12-20T10:50:25;10.38;;;5.57;;
70840;SDS011;58465;51.534;9.934;2022-12-20T10:55:38;8.20;;;4.22;;
70840;SDS011;58465;51.534;9.934;2022-12-20T10:58:05;13.32;;;5.80;;
70840;SDS011;58465;51.534;9.934;2022-12-20T11:00:40;11.23;;;5.07;;
70840;SDS011;58465;51.534;9.934;2022-12-20T11:03:10;9.40;;;4.88;;
70840;SDS011;58465;51.534;9.934;2022-12-20T11:05:39;12.57;;;5.28;;
70840;SDS011;58465;51.534;9.934;2022-12-20T11:08:12;12.30;;;5.80;;
70840;SDS011;58465;51.534;9.934;2022-12-20T11:10:40;8.43;;;4.63;;
70840;SDS011;58465;51.534;9.934;2022-12-20T11:13:10;11.45;;;5.45;;
70840;SDS011;58465;51.534;9.934;2022-12-20T11:15:47;9.70;;;5.32;;
70840;SDS011;58465;51.534;9.934;2022-12-20T11:18:18;14.13;;;5.97;;
70840;SDS011;58465;51.534;9.934;2022-12-20T11:20:57;8.85;;;5.30;;
70840;SDS011;58465;51.534;9.934;2022-12-20T11:23:33;11.55;;;4.85;;
70840;SDS011;58465;51.534;9.934;2022-12-20T11:31:48;12.48;;;5.50;;
70840;SDS011;58465;51.534;9.934;2022-12-20T11:37:23;10.85;;;5.18;;
70840;SDS011;58465;51.534;9.934;2022-12-20T11:48:19;13.65;;;6.38;;
70840;SDS011;58465;51.534;9.934;2022-12-20T11:53:37;12.68;;;6.00;;
70840;SDS011;58465;51.534;9.934;2022-12-20T11:56:12;10.23;;;5.95;;
70840;SDS011;58465;51.534;9.934;2022-12-20T11:58:47;11.32;;;5.10;;
70840;SDS011;58465;51.534;9.934;2022-12-20T12:01:23;10.48;;;5.22;;
70840;SDS011;58465;51.534;9.934;2022-12-20T12:03:59;10.82;;;5.47;;
70840;SDS011;58465;51.534;9.934;2022-12-20T12:06:38;12.55;;;5.82;;
70840;SDS011;58465;51.534;9.934;2022-12-20T12:12:31;12.27;;;6.57;;
70840;SDS011;58465;51.534;9.934;2022-12-20T12:14:45;10.40;;;5.80;;
70840;SDS011;58465;51.534;9.934;2022-12-20T12:17:24;11.97;;;6.80;;
70840;SDS011;58465;51.534;9.934;2022-12-20T12:20:28;10.38;;;5.90;;
70840;SDS011;58465;51.534;9.934;2022-12-20T12:23:16;14.45;;;5.93;;
70840;SDS011;58465;51.534;9.934;2022-12-20T12:25:51;10.05;;;5.85;;
70840;SDS011;58465;51.534;9.934;2022-12-20T12:28:17;10.93;;;5.57;;
70840;SDS011;58465;51.534;9.934;2022-12-20T12:30:47;10.32;;;5.22;;
70840;SDS011;58465;51.534;9.934;2022-12-20T12:33:24;11.90;;;6.13;;
70840;SDS011;58465;51.534;9.934;2022-12-20T12:36:01;11.75;;;5.60;;
70840;SDS011;58465;51.534;9.934;2022-12-20T12:44:48;9.30;;;5.20;;
70840;SDS011;58465;51.534;9.934;2022-12-20T12:47:22;9.48;;;5.10;;
70840;SDS011;58465;51.534;9.934;2022-12-20T12:50:00;11.90;;;5.47;;
70840;SDS011;58465;51.534;9.934;2022-12-20T12:52:49;11.82;;;5.53;;
70840;SDS011;58465;51.534;9.934;2022-12-20T12:58:14;12.02;;;5.35;;
70840;SDS011;58465;51.534;9.934;2022-12-20T13:00:59;11.27;;;5.40;;
70840;SDS011;58465;51.534;9.934;2022-12-20T13:11:31;13.25;;;6.32;;
70840;SDS011;58465;51.534;9.934;2022-12-20T13:14:45;9.85;;;5.25;;
70840;SDS011;58465;51.534;9.934;2022-12-20T13:19:33;13.80;;;5.72;;
70840;SDS011;58465;51.534;9.934;2022-12-20T13:27:23;11.68;;;6.30;;
70840;SDS011;58465;51.534;9.934;2022-12-20T13:48:41;12.73;;;6.43;;
70840;SDS011;58465;51.534;9.934;2022-12-20T13:51:15;12.27;;;6.47;;
70840;SDS011;58465;51.534;9.934;2022-12-20T13:53:49;13.18;;;5.53;;
70840;SDS011;58465;51.534;9.934;2022-12-20T13:58:55;10.45;;;6.07;;
70840;SDS011;58465;51.534;9.934;2022-12-20T14:01:29;12.35;;;6.28;;
70840;SDS011;58465;51.534;9.934;2022-12-20T14:04:01;9.00;;;5.22;;
70840;SDS011;58465;51.534;9.934;2022-12-20T14:06:28;14.13;;;6.53;;
70840;SDS011;58465;51.534;9.934;2022-12-20T14:08:54;11.95;;;6.50;;
70840;SDS011;58465;51.534;9.934;2022-12-20T14:11:20;11.73;;;5.90;;
70840;SDS011;58465;51.534;9.934;2022-12-20T14:13:51;10.65;;;5.78;;
70840;SDS011;58465;51.534;9.934;2022-12-20T14:16:19;9.82;;;5.30;;
70840;SDS011;58465;51.534;9.934;2022-12-20T14:18:48;13.02;;;6.57;;
70840;SDS011;58465;51.534;9.934;2022-12-20T14:21:27;12.75;;;6.35;;
70840;SDS011;58465;51.534;9.934;2022-12-20T14:23:54;12.98;;;6.32;;
70840;SDS011;58465;51.534;9.934;2022-12-20T14:26:23;10.80;;;5.97;;
70840;SDS011;58465;51.534;9.934;2022-12-20T14:28:51;12.68;;;6.43;;
70840;SDS011;58465;51.534;9.934;2022-12-20T14:31:27;11.73;;;5.55;;
70840;SDS011;58465;51.534;9.934;2022-12-20T14:34:04;10.55;;;5.47;;
70840;SDS011;58465;51.534;9.934;2022-12-20T14:36:29;10.18;;;6.13;;
70840;SDS011;58465;51.534;9.934;2022-12-20T14:38:55;17.25;;;7.00;;
70840;SDS011;58465;51.534;9.934;2022-12-20T14:46:32;9.98;;;6.07;;
70840;SDS011;58465;51.534;9.934;2022-12-20T14:49:19;11.43;;;6.57;;
70840;SDS011;58465;51.534;9.934;2022-12-20T14:51:48;13.07;;;6.35;;
70840;SDS011;58465;51.534;9.934;2022-12-20T14:54:20;13.40;;;7.50;;
70840;SDS011;58465;51.534;9.934;2022-12-20T14:56:50;12.82;;;6.40;;
70840;SDS011;58465;51.534;9.934;2022-12-20T14:59:16;10.55;;;6.38;;
70840;SDS011;58465;51.534;9.934;2022-12-20T15:01:48;9.85;;;5.63;;
70840;SDS011;58465;51.534;9.934;2022-12-20T15:06:55;11.73;;;6.43;;
70840;SDS011;58465;51.534;9.934;2022-12-20T15:09:21;13.15;;;6.28;;
70840;SDS011;58465;51.534;9.934;2022-12-20T15:11:46;13.13;;;6.80;;
70840;SDS011;58465;51.534;9.934;2022-12-20T15:17:02;14.07;;;6.13;;
70840;SDS011;58465;51.534;9.934;2022-12-20T15:19:30;10.90;;;5.32;;
70840;SDS011;58465;51.534;9.934;2022-12-20T15:21:56;10.13;;;5.22;;
70840;SDS011;58465;51.534;9.934;2022-12-20T15:24:25;15.68;;;7.03;;
70840;SDS011;58465;51.534;9.934;2022-12-20T15:26:51;12.50;;;6.45;;
70840;SDS011;58465;51.534;9.934;2022-12-20T15:29:18;11.55;;;5.63;;
70840;SDS011;58465;51.534;9.934;2022-12-20T15:31:45;11.05;;;5.72;;
70840;SDS011;58465;51.534;9.934;2022-12-20T15:34:17;12.80;;;5.82;;
70840;SDS011;58465;51.534;9.934;2022-12-20T15:36:51;10.05;;;5.45;;
70840;SDS011;58465;51.534;9.934;2022-12-20T15:39:16;14.25;;;7.20;;
70840;SDS011;58465;51.534;9.934;2022-12-20T15:41:42;14.15;;;5.90;;
70840;SDS011;58465;51.534;9.934;2022-12-20T15:44:15;12.43;;;5.70;;
70840;SDS011;58465;51.534;9.934;2022-12-20T15:46:43;10.48;;;5.05;;
70840;SDS011;58465;51.534;9.934;2022-12-20T15:49:28;8.95;;;4.57;;
70840;SDS011;58465;51.534;9.934;2022-12-20T15:51:55;12.40;;;5.70;;
70840;SDS011;58465;51.534;9.934;2022-12-20T15:54:22;14.38;;;5.97;;
70840;SDS011;58465;51.534;9.934;2022-12-20T15:56:51;11.63;;;5.95;;
70840;SDS011;58465;51.534;9.934;2022-12-20T15:59:20;11.75;;;6.18;;
70840;SDS011;58465;51.534;9.934;2022-12-20T16:01:46;11.27;;;6.05;;
70840;SDS011;58465;51.534;9.934;2022-12-20T16:04:12;9.18;;;5.53;;
70840;SDS011;58465;51.534;9.934;2022-12-20T16:06:40;11.65;;;6.18;;
70840;SDS011;58465;51.534;9.934;2022-12-20T16:09:06;14.93;;;6.40;;
70840;SDS011;58465;51.534;9.934;2022-12-20T16:11:31;10.60;;;6.75;;
70840;SDS011;58465;51.534;9.934;2022-12-20T16:13:57;14.40;;;7.30;;
70840;SDS011;58465;51.534;9.934;2022-12-20T16:16:24;11.80;;;6.60;;
70840;SDS011;58465;51.534;9.934;2022-12-20T16:18:52;15.23;;;8.02;;
70840;SDS011;58465;51.534;9.934;2022-12-20T16:21:19;15.63;;;8.60;;
70840;SDS011;58465;51.534;9.934;2022-12-20T16:23:46;15.35;;;7.80;;
70840;SDS011;58465;51.534;9.934;2022-12-20T16:26:15;13.82;;;7.13;;
70840;SDS011;58465;51.534;9.934;2022-12-20T16:28:43;13.93;;;7.22;;
70840;SDS011;58465;51.534;9.934;2022-12-20T16:31:11;16.98;;;7.05;;
70840;SDS011;58465;51.534;9.934;2022-12-20T16:33:55;15.45;;;6.57;;
70840;SDS011;58465;51.534;9.934;2022-12-20T16:36:21;12.13;;;7.38;;
70840;SDS011;58465;51.534;9.934;2022-12-20T16:38:47;20.52;;;10.00;;
70840;SDS011;58465;51.534;9.934;2022-12-20T16:41:17;13.38;;;7.18;;
70840;SDS011;58465;51.534;9.934;2022-12-20T16:43:51;14.90;;;8.07;;
70840;SDS011;58465;51.534;9.934;2022-12-20T16:46:19;13.15;;;6.78;;
70840;SDS011;58465;51.534;9.934;2022-12-20T16:48:46;12.93;;;6.90;;
70840;SDS011;58465;51.534;9.934;2022-12-20T16:51:22;19.88;;;7.75;;
70840;SDS011;58465;51.534;9.934;2022-12-20T16:53:53;16.13;;;7.35;;